sensor_id;sensor_type;location;lat;lon;timestamp;pressure;altitude;pressure_sealevel;temperature;humidity
48848;BME280;75039;51.970;5.660;2024-01-25T00:00:46;102776.16;;;11.55;57.08
48848;BME280;75039;51.970;5.660;2024-01-25T00:03:13;102772.75;;;11.51;56.95
48848;BME280;75039;51.970;5.660;2024-01-25T00:05:40;102777.31;;;11.49;56.70
48848;BME280;75039;51.970;5.660;2024-01-25T00:08:07;102780.06;;;11.48;56.73
48848;BME280;75039;51.970;5.660;2024-01-25T00:10:34;102788.28;;;11.44;56.94
48848;BME280;75039;51.970;5.660;2024-01-25T00:13:00;102783.84;;;11.43;56.93
48848;BME280;75039;51.970;5.660;2024-01-25T00:15:28;102784.84;;;11.41;56.99
48848;BME280;75039;51.970;5.660;2024-01-25T00:17:55;102791.25;;;11.38;56.72
48848;BME280;75039;51.970;5.660;2024-01-25T00:20:23;102783.25;;;11.37;57.01
48848;BME280;75039;51.970;5.660;2024-01-25T00:22:50;102787.88;;;11.33;57.16
48848;BME280;75039;51.970;5.660;2024-01-25T00:25:17;102778.06;;;11.32;56.67
48848;BME280;75039;51.970;5.660;2024-01-25T00:27:44;102776.38;;;11.30;56.97
48848;BME280;75039;51.970;5.660;2024-01-25T00:30:11;102782.75;;;11.27;56.91
48848;BME280;75039;51.970;5.660;2024-01-25T00:32:38;102777.53;;;11.24;56.71
48848;BME280;75039;51.970;5.660;2024-01-25T00:35:06;102788.34;;;11.23;57.00
48848;BME280;75039;51.970;5.660;2024-01-25T00:37:33;102785.72;;;11.21;57.00
48848;BME280;75039;51.970;5.660;2024-01-25T00:40:00;102787.59;;;11.19;57.12
48848;BME280;75039;51.970;5.660;2024-01-25T00:42:28;102793.91;;;11.18;56.86
48848;BME280;75039;51.970;5.660;2024-01-25T00:44:55;102802.94;;;11.17;57.01
48848;BME280;75039;51.970;5.660;2024-01-25T00:47:22;102795.84;;;11.14;56.97
48848;BME280;75039;51.970;5.660;2024-01-25T00:49:49;102792.25;;;11.14;57.02
48848;BME280;75039;51.970;5.660;2024-01-25T00:52:16;102789.63;;;11.12;56.89
48848;BME280;75039;51.970;5.660;2024-01-25T00:54:45;102791.53;;;11.10;56.97
48848;BME280;75039;51.970;5.660;2024-01-25T00:57:12;102795.22;;;11.08;57.03
48848;BME280;75039;51.970;5.660;2024-01-25T00:59:39;102801.53;;;11.07;56.59
48848;BME280;75039;51.970;5.660;2024-01-25T01:02:11;102802.47;;;11.06;56.80
48848;BME280;75039;51.970;5.660;2024-01-25T01:04:40;102807.84;;;11.06;56.97
48848;BME280;75039;51.970;5.660;2024-01-25T01:07:14;102817.66;;;11.07;57.01
48848;BME280;75039;51.970;5.660;2024-01-25T01:09:41;102816.78;;;11.06;57.04
48848;BME280;75039;51.970;5.660;2024-01-25T01:12:10;102814.16;;;11.05;56.96
48848;BME280;75039;51.970;5.660;2024-01-25T01:14:37;102818.72;;;11.03;57.01
48848;BME280;75039;51.970;5.660;2024-01-25T01:17:03;102822.28;;;11.03;56.96
48848;BME280;75039;51.970;5.660;2024-01-25T01:19:31;102824.19;;;11.01;57.25
48848;BME280;75039;51.970;5.660;2024-01-25T01:21:58;102826.88;;;11.01;56.65
48848;BME280;75039;51.970;5.660;2024-01-25T01:24:24;102821.56;;;11.00;57.06
48848;BME280;75039;51.970;5.660;2024-01-25T01:26:51;102827.94;;;10.97;56.86
48848;BME280;75039;51.970;5.660;2024-01-25T01:29:18;102829.81;;;10.95;56.88
48848;BME280;75039;51.970;5.660;2024-01-25T01:31:45;102842.50;;;10.92;56.91
48848;BME280;75039;51.970;5.660;2024-01-25T01:34:11;102834.56;;;10.89;56.89
48848;BME280;75039;51.970;5.660;2024-01-25T01:36:41;102827.50;;;10.86;56.75
48848;BME280;75039;51.970;5.660;2024-01-25T01:39:09;102835.75;;;10.81;56.94
48848;BME280;75039;51.970;5.660;2024-01-25T01:41:36;102839.56;;;10.76;57.12
48848;BME280;75039;51.970;5.660;2024-01-25T01:44:02;102834.44;;;10.70;56.69
48848;BME280;75039;51.970;5.660;2024-01-25T01:46:36;102844.47;;;10.65;56.85
48848;BME280;75039;51.970;5.660;2024-01-25T01:49:04;102847.22;;;10.63;57.11
48848;BME280;75039;51.970;5.660;2024-01-25T01:51:32;102849.16;;;10.60;57.05
48848;BME280;75039;51.970;5.660;2024-01-25T01:54:00;102858.16;;;10.59;57.00
48848;BME280;75039;51.970;5.660;2024-01-25T01:56:28;102848.41;;;10.56;57.03
48848;BME280;75039;51.970;5.660;2024-01-25T01:58:59;102848.53;;;10.53;57.33
48848;BME280;75039;51.970;5.660;2024-01-25T02:01:28;102846.84;;;10.50;57.15
48848;BME280;75039;51.970;5.660;2024-01-25T02:03:55;102853.22;;;10.48;57.38
48848;BME280;75039;51.970;5.660;2024-01-25T02:06:26;102864.00;;;10.46;57.10
48848;BME280;75039;51.970;5.660;2024-01-25T02:08:52;102857.75;;;10.46;57.14
48848;BME280;75039;51.970;5.660;2024-01-25T02:11:19;102873.94;;;10.44;57.24
48848;BME280;75039;51.970;5.660;2024-01-25T02:13:46;102879.38;;;10.43;57.59
48848;BME280;75039;51.970;5.660;2024-01-25T02:16:13;102883.94;;;10.41;57.43
48848;BME280;75039;51.970;5.660;2024-01-25T02:18:44;102888.44;;;10.39;57.18
48848;BME280;75039;51.970;5.660;2024-01-25T02:21:11;102882.19;;;10.38;57.67
48848;BME280;75039;51.970;5.660;2024-01-25T02:23:38;102882.19;;;10.38;57.50
48848;BME280;75039;51.970;5.660;2024-01-25T02:26:05;102879.56;;;10.37;57.33
48848;BME280;75039;51.970;5.660;2024-01-25T02:28:32;102872.50;;;10.34;57.50
48848;BME280;75039;51.970;5.660;2024-01-25T02:31:01;102877.06;;;10.32;57.38
48848;BME280;75039;51.970;5.660;2024-01-25T02:33:27;102887.84;;;10.31;57.50
48848;BME280;75039;51.970;5.660;2024-01-25T02:35:54;102889.72;;;10.29;57.46
48848;BME280;75039;51.970;5.660;2024-01-25T02:38:21;102888.91;;;10.27;57.34
48848;BME280;75039;51.970;5.660;2024-01-25T02:40:48;102891.72;;;10.24;57.37
48848;BME280;75039;51.970;5.660;2024-01-25T02:43:14;102891.81;;;10.21;57.45
48848;BME280;75039;51.970;5.660;2024-01-25T02:45:41;102894.53;;;10.19;57.63
48848;BME280;75039;51.970;5.660;2024-01-25T02:48:09;102899.94;;;10.17;57.51
48848;BME280;75039;51.970;5.660;2024-01-25T02:50:36;102899.06;;;10.17;57.73
48848;BME280;75039;51.970;5.660;2024-01-25T02:53:07;102905.38;;;10.16;57.57
48848;BME280;75039;51.970;5.660;2024-01-25T02:55:36;102906.31;;;10.15;57.68
48848;BME280;75039;51.970;5.660;2024-01-25T02:58:03;102895.63;;;10.13;57.60
48848;BME280;75039;51.970;5.660;2024-01-25T03:00:30;102901.06;;;10.12;57.60
48848;BME280;75039;51.970;5.660;2024-01-25T03:02:57;102894.91;;;10.08;57.64
48848;BME280;75039;51.970;5.660;2024-01-25T03:05:24;102894.22;;;10.03;57.83
48848;BME280;75039;51.970;5.660;2024-01-25T03:07:51;102894.38;;;9.99;57.80
48848;BME280;75039;51.970;5.660;2024-01-25T03:10:18;102898.97;;;9.95;57.62
48848;BME280;75039;51.970;5.660;2024-01-25T03:12:45;102889.22;;;9.93;57.95
48848;BME280;75039;51.970;5.660;2024-01-25T03:15:11;102887.53;;;9.90;57.65
48848;BME280;75039;51.970;5.660;2024-01-25T03:17:38;102896.50;;;9.89;57.87
48848;BME280;75039;51.970;5.660;2024-01-25T03:20:06;102893.88;;;9.87;57.93
48848;BME280;75039;51.970;5.660;2024-01-25T03:22:33;102899.31;;;9.86;57.88
48848;BME280;75039;51.970;5.660;2024-01-25T03:24:59;102902.03;;;9.84;58.16
48848;BME280;75039;51.970;5.660;2024-01-25T03:27:26;102895.81;;;9.84;57.88
48848;BME280;75039;51.970;5.660;2024-01-25T03:29:53;102896.72;;;9.83;58.13
48848;BME280;75039;51.970;5.660;2024-01-25T03:32:20;102903.91;;;9.82;58.02
48848;BME280;75039;51.970;5.660;2024-01-25T03:34:46;102894.97;;;9.82;58.09
48848;BME280;75039;51.970;5.660;2024-01-25T03:37:13;102904.03;;;9.79;58.20
48848;BME280;75039;51.970;5.660;2024-01-25T03:39:40;102887.97;;;9.78;58.12
48848;BME280;75039;51.970;5.660;2024-01-25T03:42:07;102905.00;;;9.77;58.10
48848;BME280;75039;51.970;5.660;2024-01-25T03:44:34;102896.13;;;9.75;58.28
48848;BME280;75039;51.970;5.660;2024-01-25T03:47:00;102899.75;;;9.74;58.15
48848;BME280;75039;51.970;5.660;2024-01-25T03:49:27;102893.59;;;9.70;58.08
48848;BME280;75039;51.970;5.660;2024-01-25T03:51:54;102899.91;;;9.69;58.06
48848;BME280;75039;51.970;5.660;2024-01-25T03:54:21;102894.59;;;9.68;58.30
48848;BME280;75039;51.970;5.660;2024-01-25T03:56:47;102898.19;;;9.67;58.07
48848;BME280;75039;51.970;5.660;2024-01-25T03:59:14;102889.28;;;9.65;58.19
48848;BME280;75039;51.970;5.660;2024-01-25T04:01:44;102884.91;;;9.62;58.42
48848;BME280;75039;51.970;5.660;2024-01-25T04:04:14;102882.34;;;9.59;58.37
48848;BME280;75039;51.970;5.660;2024-01-25T04:06:44;102891.31;;;9.58;58.14
48848;BME280;75039;51.970;5.660;2024-01-25T04:09:14;102895.81;;;9.57;58.21
48848;BME280;75039;51.970;5.660;2024-01-25T04:11:41;102902.16;;;9.55;58.25
48848;BME280;75039;51.970;5.660;2024-01-25T04:14:09;102896.84;;;9.53;58.35
48848;BME280;75039;51.970;5.660;2024-01-25T04:16:36;102898.66;;;9.53;58.13
48848;BME280;75039;51.970;5.660;2024-01-25T04:19:03;102896.88;;;9.52;58.49
48848;BME280;75039;51.970;5.660;2024-01-25T04:21:30;102892.41;;;9.52;58.35
48848;BME280;75039;51.970;5.660;2024-01-25T04:23:57;102894.25;;;9.50;58.43
48848;BME280;75039;51.970;5.660;2024-01-25T04:26:24;102892.56;;;9.48;58.21
48848;BME280;75039;51.970;5.660;2024-01-25T04:28:50;102901.53;;;9.47;58.40
48848;BME280;75039;51.970;5.660;2024-01-25T04:31:17;102899.84;;;9.44;58.29
48848;BME280;75039;51.970;5.660;2024-01-25T04:33:44;102897.19;;;9.43;58.34
48848;BME280;75039;51.970;5.660;2024-01-25T04:36:14;102911.75;;;9.36;58.35
48848;BME280;75039;51.970;5.660;2024-01-25T04:38:41;102910.13;;;9.30;58.32
48848;BME280;75039;51.970;5.660;2024-01-25T04:41:09;102905.81;;;9.26;58.17
48848;BME280;75039;51.970;5.660;2024-01-25T04:43:36;102907.66;;;9.24;58.40
48848;BME280;75039;51.970;5.660;2024-01-25T04:46:05;102899.72;;;9.21;58.37
48848;BME280;75039;51.970;5.660;2024-01-25T04:48:32;102901.53;;;9.20;58.33
48848;BME280;75039;51.970;5.660;2024-01-25T04:50:59;102906.16;;;9.15;58.39
48848;BME280;75039;51.970;5.660;2024-01-25T04:53:26;102908.09;;;9.10;58.28
48848;BME280;75039;51.970;5.660;2024-01-25T04:55:54;102909.13;;;9.06;57.98
48848;BME280;75039;51.970;5.660;2024-01-25T04:58:21;102901.28;;;9.00;58.15
48848;BME280;75039;51.970;5.660;2024-01-25T05:00:48;102916.59;;;8.97;58.14
48848;BME280;75039;51.970;5.660;2024-01-25T05:03:17;102921.16;;;8.93;58.29
48848;BME280;75039;51.970;5.660;2024-01-25T05:05:44;102918.50;;;8.91;58.48
48848;BME280;75039;51.970;5.660;2024-01-25T05:08:11;102923.03;;;8.89;58.65
48848;BME280;75039;51.970;5.660;2024-01-25T05:10:37;102912.38;;;8.88;58.41
48848;BME280;75039;51.970;5.660;2024-01-25T05:13:04;102906.19;;;8.86;58.36
48848;BME280;75039;51.970;5.660;2024-01-25T05:15:31;102915.13;;;8.85;58.49
48848;BME280;75039;51.970;5.660;2024-01-25T05:17:58;102922.28;;;8.84;58.63
48848;BME280;75039;51.970;5.660;2024-01-25T05:20:24;102916.09;;;8.82;58.41
48848;BME280;75039;51.970;5.660;2024-01-25T05:22:59;102913.53;;;8.79;58.45
48848;BME280;75039;51.970;5.660;2024-01-25T05:25:26;102902.84;;;8.78;58.17
48848;BME280;75039;51.970;5.660;2024-01-25T05:27:55;102904.75;;;8.74;58.48
48848;BME280;75039;51.970;5.660;2024-01-25T05:30:22;102911.09;;;8.72;58.39
48848;BME280;75039;51.970;5.660;2024-01-25T05:32:48;102919.16;;;8.70;58.51
48848;BME280;75039;51.970;5.660;2024-01-25T05:35:17;102918.38;;;8.67;58.56
48848;BME280;75039;51.970;5.660;2024-01-25T05:37:44;102918.44;;;8.65;58.59
48848;BME280;75039;51.970;5.660;2024-01-25T05:40:11;102925.59;;;8.65;58.70
48848;BME280;75039;51.970;5.660;2024-01-25T05:42:39;102924.69;;;8.64;58.63
48848;BME280;75039;51.970;5.660;2024-01-25T05:45:07;102934.53;;;8.64;58.78
48848;BME280;75039;51.970;5.660;2024-01-25T05:47:35;102929.19;;;8.64;58.89
48848;BME280;75039;51.970;5.660;2024-01-25T05:50:03;102929.09;;;8.67;59.10
48848;BME280;75039;51.970;5.660;2024-01-25T05:52:31;102935.31;;;8.67;58.96
48848;BME280;75039;51.970;5.660;2024-01-25T05:54:59;102943.41;;;8.66;58.84
48848;BME280;75039;51.970;5.660;2024-01-25T05:57:31;102947.00;;;8.65;58.82
48848;BME280;75039;51.970;5.660;2024-01-25T05:59:59;102940.78;;;8.64;58.82
48848;BME280;75039;51.970;5.660;2024-01-25T06:02:26;102947.97;;;8.62;58.89
48848;BME280;75039;51.970;5.660;2024-01-25T06:04:52;102946.22;;;8.61;58.89
48848;BME280;75039;51.970;5.660;2024-01-25T06:07:19;102949.91;;;8.57;58.79
48848;BME280;75039;51.970;5.660;2024-01-25T06:09:47;102945.47;;;8.56;58.82
48848;BME280;75039;51.970;5.660;2024-01-25T06:12:14;102935.69;;;8.55;59.06
48848;BME280;75039;51.970;5.660;2024-01-25T06:14:41;102946.53;;;8.50;58.88
48848;BME280;75039;51.970;5.660;2024-01-25T06:17:07;102951.94;;;8.49;58.98
48848;BME280;75039;51.970;5.660;2024-01-25T06:19:34;102951.09;;;8.47;58.98
48848;BME280;75039;51.970;5.660;2024-01-25T06:22:01;102962.75;;;8.46;58.84
48848;BME280;75039;51.970;5.660;2024-01-25T06:24:29;102962.78;;;8.44;59.11
48848;BME280;75039;51.970;5.660;2024-01-25T06:26:56;102965.50;;;8.43;59.02
48848;BME280;75039;51.970;5.660;2024-01-25T06:29:23;102962.91;;;8.40;59.02
48848;BME280;75039;51.970;5.660;2024-01-25T06:31:50;102969.22;;;8.37;58.76
48848;BME280;75039;51.970;5.660;2024-01-25T06:34:17;102969.28;;;8.36;58.99
48848;BME280;75039;51.970;5.660;2024-01-25T06:36:44;102965.75;;;8.34;58.94
48848;BME280;75039;51.970;5.660;2024-01-25T06:39:11;102971.13;;;8.32;59.01
48848;BME280;75039;51.970;5.660;2024-01-25T06:41:38;102974.75;;;8.29;58.98
48848;BME280;75039;51.970;5.660;2024-01-25T06:44:05;102970.34;;;8.28;59.04
48848;BME280;75039;51.970;5.660;2024-01-25T06:46:32;102972.09;;;8.29;59.12
48848;BME280;75039;51.970;5.660;2024-01-25T06:48:59;102978.28;;;8.32;59.13
48848;BME280;75039;51.970;5.660;2024-01-25T06:51:26;102974.69;;;8.34;59.32
48848;BME280;75039;51.970;5.660;2024-01-25T06:53:53;102975.50;;;8.36;59.45
48848;BME280;75039;51.970;5.660;2024-01-25T06:56:20;102973.66;;;8.38;59.26
48848;BME280;75039;51.970;5.660;2024-01-25T06:58:47;102964.72;;;8.39;59.57
48848;BME280;75039;51.970;5.660;2024-01-25T07:01:20;102975.38;;;8.41;59.52
48848;BME280;75039;51.970;5.660;2024-01-25T07:03:47;102974.41;;;8.43;59.45
48848;BME280;75039;51.970;5.660;2024-01-25T07:06:19;102973.44;;;8.46;59.69
48848;BME280;75039;51.970;5.660;2024-01-25T07:08:46;102966.25;;;8.48;59.87
48848;BME280;75039;51.970;5.660;2024-01-25T07:11:13;102959.06;;;8.50;59.40
48848;BME280;75039;51.970;5.660;2024-01-25T07:13:44;102963.47;;;8.51;59.64
48848;BME280;75039;51.970;5.660;2024-01-25T07:16:11;102958.97;;;8.53;59.52
48848;BME280;75039;51.970;5.660;2024-01-25T07:18:38;102956.28;;;8.53;59.53
48848;BME280;75039;51.970;5.660;2024-01-25T07:21:05;102958.91;;;8.54;59.56
48848;BME280;75039;51.970;5.660;2024-01-25T07:23:33;102956.28;;;8.53;59.56
48848;BME280;75039;51.970;5.660;2024-01-25T07:26:00;102955.44;;;8.51;59.64
48848;BME280;75039;51.970;5.660;2024-01-25T07:28:27;102961.69;;;8.51;59.60
48848;BME280;75039;51.970;5.660;2024-01-25T07:30:54;102965.25;;;8.52;59.95
48848;BME280;75039;51.970;5.660;2024-01-25T07:33:20;102955.44;;;8.51;59.62
48848;BME280;75039;51.970;5.660;2024-01-25T07:35:47;102965.25;;;8.52;59.60
48848;BME280;75039;51.970;5.660;2024-01-25T07:38:15;102973.28;;;8.52;59.68
48848;BME280;75039;51.970;5.660;2024-01-25T07:40:42;102969.69;;;8.53;59.84
48848;BME280;75039;51.970;5.660;2024-01-25T07:43:09;102972.22;;;8.57;59.89
48848;BME280;75039;51.970;5.660;2024-01-25T07:45:36;102969.44;;;8.60;60.07
48848;BME280;75039;51.970;5.660;2024-01-25T07:48:03;102970.25;;;8.64;60.03
48848;BME280;75039;51.970;5.660;2024-01-25T07:50:40;102976.44;;;8.66;59.81
48848;BME280;75039;51.970;5.660;2024-01-25T07:53:07;102972.78;;;8.69;60.03
48848;BME280;75039;51.970;5.660;2024-01-25T07:55:34;102979.06;;;8.68;59.99
48848;BME280;75039;51.970;5.660;2024-01-25T07:58:01;102976.44;;;8.66;60.04
48848;BME280;75039;51.970;5.660;2024-01-25T08:00:28;102977.25;;;8.68;60.22
48848;BME280;75039;51.970;5.660;2024-01-25T08:02:54;102973.63;;;8.71;60.06
48848;BME280;75039;51.970;5.660;2024-01-25T08:05:21;102968.16;;;8.74;60.03
48848;BME280;75039;51.970;5.660;2024-01-25T08:07:56;102969.88;;;8.76;60.22
48848;BME280;75039;51.970;5.660;2024-01-25T08:10:23;102975.16;;;8.79;59.77
48848;BME280;75039;51.970;5.660;2024-01-25T08:12:50;102966.19;;;8.80;60.05
48848;BME280;75039;51.970;5.660;2024-01-25T08:15:28;102973.34;;;8.80;59.97
48848;BME280;75039;51.970;5.660;2024-01-25T08:17:54;102974.25;;;8.79;59.94
48848;BME280;75039;51.970;5.660;2024-01-25T08:20:21;102987.66;;;8.79;59.82
48848;BME280;75039;51.970;5.660;2024-01-25T08:22:48;102985.88;;;8.79;59.86
48848;BME280;75039;51.970;5.660;2024-01-25T08:25:15;102992.09;;;8.80;59.98
48848;BME280;75039;51.970;5.660;2024-01-25T08:27:43;102981.34;;;8.81;59.91
48848;BME280;75039;51.970;5.660;2024-01-25T08:30:11;102982.22;;;8.82;60.15
48848;BME280;75039;51.970;5.660;2024-01-25T08:32:38;102982.13;;;8.85;60.27
48848;BME280;75039;51.970;5.660;2024-01-25T08:35:05;102981.19;;;8.86;60.08
48848;BME280;75039;51.970;5.660;2024-01-25T08:37:34;102991.88;;;8.87;60.29
48848;BME280;75039;51.970;5.660;2024-01-25T08:40:03;102994.50;;;8.89;60.04
48848;BME280;75039;51.970;5.660;2024-01-25T08:42:32;102990.94;;;8.88;60.27
48848;BME280;75039;51.970;5.660;2024-01-25T08:44:59;103004.38;;;8.87;60.15
48848;BME280;75039;51.970;5.660;2024-01-25T08:47:26;103007.84;;;8.90;60.16
48848;BME280;75039;51.970;5.660;2024-01-25T08:49:53;103011.41;;;8.93;60.40
48848;BME280;75039;51.970;5.660;2024-01-25T08:52:20;103005.16;;;8.92;60.40
48848;BME280;75039;51.970;5.660;2024-01-25T08:54:46;102998.88;;;8.93;60.19
48848;BME280;75039;51.970;5.660;2024-01-25T08:57:13;102990.78;;;8.95;60.44
48848;BME280;75039;51.970;5.660;2024-01-25T08:59:41;102997.00;;;8.97;60.37
48848;BME280;75039;51.970;5.660;2024-01-25T09:02:09;103011.25;;;8.97;60.46
48848;BME280;75039;51.970;5.660;2024-01-25T09:04:36;103012.09;;;8.99;60.30
48848;BME280;75039;51.970;5.660;2024-01-25T09:07:04;103006.66;;;9.02;60.35
48848;BME280;75039;51.970;5.660;2024-01-25T09:09:30;103007.44;;;9.06;60.37
48848;BME280;75039;51.970;5.660;2024-01-25T09:11:57;103006.41;;;9.10;60.50
48848;BME280;75039;51.970;5.660;2024-01-25T09:14:24;103007.19;;;9.13;60.16
48848;BME280;75039;51.970;5.660;2024-01-25T09:16:50;103000.84;;;9.16;60.57
48848;BME280;75039;51.970;5.660;2024-01-25T09:19:17;103017.72;;;9.19;60.51
48848;BME280;75039;51.970;5.660;2024-01-25T09:21:44;103011.44;;;9.20;60.52
48848;BME280;75039;51.970;5.660;2024-01-25T09:24:11;103016.75;;;9.22;60.69
48848;BME280;75039;51.970;5.660;2024-01-25T09:26:40;103024.81;;;9.22;60.45
48848;BME280;75039;51.970;5.660;2024-01-25T09:29:06;103027.47;;;9.22;60.64
48848;BME280;75039;51.970;5.660;2024-01-25T09:31:33;103020.25;;;9.24;60.68
48848;BME280;75039;51.970;5.660;2024-01-25T09:34:00;103024.69;;;9.25;60.56
48848;BME280;75039;51.970;5.660;2024-01-25T09:36:27;103022.91;;;9.26;60.58
48848;BME280;75039;51.970;5.660;2024-01-25T09:38:54;103022.75;;;9.30;60.84
48848;BME280;75039;51.970;5.660;2024-01-25T09:41:21;103015.44;;;9.35;60.87
48848;BME280;75039;51.970;5.660;2024-01-25T09:43:48;103014.44;;;9.39;60.79
48848;BME280;75039;51.970;5.660;2024-01-25T09:46:15;102997.34;;;9.42;60.86
48848;BME280;75039;51.970;5.660;2024-01-25T09:48:44;102990.03;;;9.47;60.96
48848;BME280;75039;51.970;5.660;2024-01-25T09:51:13;102995.25;;;9.51;60.80
48848;BME280;75039;51.970;5.660;2024-01-25T09:53:40;103004.22;;;9.50;60.89
48848;BME280;75039;51.970;5.660;2024-01-25T09:56:10;103008.72;;;9.50;60.85
48848;BME280;75039;51.970;5.660;2024-01-25T09:58:40;103011.41;;;9.50;60.77
48848;BME280;75039;51.970;5.660;2024-01-25T10:01:10;103017.59;;;9.52;60.68
48848;BME280;75039;51.970;5.660;2024-01-25T10:03:37;103007.59;;;9.57;61.10
48848;BME280;75039;51.970;5.660;2024-01-25T10:06:06;102996.72;;;9.62;61.09
48848;BME280;75039;51.970;5.660;2024-01-25T10:08:34;102992.16;;;9.64;61.03
48848;BME280;75039;51.970;5.660;2024-01-25T10:11:01;102986.69;;;9.68;60.98
48848;BME280;75039;51.970;5.660;2024-01-25T10:13:28;102971.25;;;9.75;60.93
48848;BME280;75039;51.970;5.660;2024-01-25T10:15:55;102971.94;;;9.81;61.21
48848;BME280;75039;51.970;5.660;2024-01-25T10:18:23;102963.72;;;9.86;61.00
48848;BME280;75039;51.970;5.660;2024-01-25T10:20:56;102978.00;;;9.86;61.04
48848;BME280;75039;51.970;5.660;2024-01-25T10:23:23;102979.81;;;9.86;60.89
48848;BME280;75039;51.970;5.660;2024-01-25T10:25:52;102991.31;;;9.90;60.90
48848;BME280;75039;51.970;5.660;2024-01-25T10:28:19;102984.97;;;9.92;61.16
48848;BME280;75039;51.970;5.660;2024-01-25T10:30:46;102983.06;;;9.96;60.90
48848;BME280;75039;51.970;5.660;2024-01-25T10:33:13;102965.03;;;9.99;61.21
48848;BME280;75039;51.970;5.660;2024-01-25T10:35:41;102966.75;;;10.02;61.15
48848;BME280;75039;51.970;5.660;2024-01-25T10:38:12;102986.19;;;10.08;61.03
48848;BME280;75039;51.970;5.660;2024-01-25T10:40:40;102983.31;;;10.14;61.23
48848;BME280;75039;51.970;5.660;2024-01-25T10:43:11;102977.75;;;10.19;61.12
48848;BME280;75039;51.970;5.660;2024-01-25T10:45:38;102979.44;;;10.23;61.10
48848;BME280;75039;51.970;5.660;2024-01-25T10:48:07;102975.78;;;10.26;60.90
48848;BME280;75039;51.970;5.660;2024-01-25T10:50:34;102964.88;;;10.30;61.25
48848;BME280;75039;51.970;5.660;2024-01-25T10:53:02;102963.88;;;10.33;61.16
48848;BME280;75039;51.970;5.660;2024-01-25T10:55:29;102955.72;;;10.36;60.96
48848;BME280;75039;51.970;5.660;2024-01-25T10:57:56;102973.44;;;10.41;61.23
48848;BME280;75039;51.970;5.660;2024-01-25T11:00:23;102959.91;;;10.44;61.11
48848;BME280;75039;51.970;5.660;2024-01-25T11:02:51;102962.41;;;10.49;61.06
48848;BME280;75039;51.970;5.660;2024-01-25T11:05:18;102961.38;;;10.53;61.13
48848;BME280;75039;51.970;5.660;2024-01-25T11:07:49;102949.63;;;10.56;61.25
48848;BME280;75039;51.970;5.660;2024-01-25T11:10:21;102947.66;;;10.61;60.86
48848;BME280;75039;51.970;5.660;2024-01-25T11:13:01;102952.84;;;10.65;61.12
48848;BME280;75039;51.970;5.660;2024-01-25T11:15:34;102941.03;;;10.69;61.21
48848;BME280;75039;51.970;5.660;2024-01-25T11:18:03;102933.63;;;10.76;61.01
48848;BME280;75039;51.970;5.660;2024-01-25T11:20:30;102928.06;;;10.80;61.25
48848;BME280;75039;51.970;5.660;2024-01-25T11:23:05;102924.31;;;10.85;60.90
48848;BME280;75039;51.970;5.660;2024-01-25T11:25:34;102919.75;;;10.87;60.99
48848;BME280;75039;51.970;5.660;2024-01-25T11:28:02;102912.63;;;10.86;60.92
48848;BME280;75039;51.970;5.660;2024-01-25T11:30:32;102916.94;;;10.90;61.03
48848;BME280;75039;51.970;5.660;2024-01-25T11:32:59;102907.81;;;10.94;61.03
48848;BME280;75039;51.970;5.660;2024-01-25T11:35:26;102919.34;;;10.97;61.15
48848;BME280;75039;51.970;5.660;2024-01-25T11:37:54;102917.41;;;11.01;61.43
48848;BME280;75039;51.970;5.660;2024-01-25T11:40:20;102919.09;;;11.03;61.12
48848;BME280;75039;51.970;5.660;2024-01-25T11:42:48;102910.91;;;11.06;60.96
48848;BME280;75039;51.970;5.660;2024-01-25T11:45:17;102885.75;;;11.07;61.07
48848;BME280;75039;51.970;5.660;2024-01-25T11:47:44;102887.50;;;11.08;60.79
48848;BME280;75039;51.970;5.660;2024-01-25T11:50:12;102881.19;;;11.09;60.75
48848;BME280;75039;51.970;5.660;2024-01-25T11:52:40;102890.94;;;11.12;60.98
48848;BME280;75039;51.970;5.660;2024-01-25T11:55:08;102892.75;;;11.11;60.78
48848;BME280;75039;51.970;5.660;2024-01-25T11:57:40;102893.56;;;11.15;60.95
48848;BME280;75039;51.970;5.660;2024-01-25T12:00:13;102888.91;;;11.19;60.92
48848;BME280;75039;51.970;5.660;2024-01-25T12:02:42;102881.59;;;11.22;60.87
48848;BME280;75039;51.970;5.660;2024-01-25T12:05:10;102877.97;;;11.23;60.90
48848;BME280;75039;51.970;5.660;2024-01-25T12:07:39;102867.09;;;11.26;60.75
48848;BME280;75039;51.970;5.660;2024-01-25T12:10:08;102862.53;;;11.28;60.67
48848;BME280;75039;51.970;5.660;2024-01-25T12:12:35;102854.31;;;11.31;60.82
48848;BME280;75039;51.970;5.660;2024-01-25T12:15:06;102868.50;;;11.35;60.81
48848;BME280;75039;51.970;5.660;2024-01-25T12:17:34;102864.88;;;11.36;60.48
48848;BME280;75039;51.970;5.660;2024-01-25T12:20:05;102875.59;;;11.37;60.83
48848;BME280;75039;51.970;5.660;2024-01-25T12:22:38;102860.38;;;11.36;60.75
48848;BME280;75039;51.970;5.660;2024-01-25T12:25:08;102855.88;;;11.37;60.76
48848;BME280;75039;51.970;5.660;2024-01-25T12:27:40;102847.81;;;11.37;60.66
48848;BME280;75039;51.970;5.660;2024-01-25T12:30:09;102843.03;;;11.43;60.82
48848;BME280;75039;51.970;5.660;2024-01-25T12:32:36;102841.28;;;11.42;60.49
48848;BME280;75039;51.970;5.660;2024-01-25T12:35:03;102835.78;;;11.45;60.50
48848;BME280;75039;51.970;5.660;2024-01-25T12:37:33;102828.56;;;11.46;60.59
48848;BME280;75039;51.970;5.660;2024-01-25T12:40:00;102833.09;;;11.45;60.71
48848;BME280;75039;51.970;5.660;2024-01-25T12:42:27;102833.00;;;11.47;60.71
48848;BME280;75039;51.970;5.660;2024-01-25T12:44:54;102821.25;;;11.50;60.85
48848;BME280;75039;51.970;5.660;2024-01-25T12:47:21;102829.19;;;11.53;60.81
48848;BME280;75039;51.970;5.660;2024-01-25T12:49:49;102818.34;;;11.54;60.77
48848;BME280;75039;51.970;5.660;2024-01-25T12:52:15;102824.53;;;11.56;60.67
48848;BME280;75039;51.970;5.660;2024-01-25T12:54:43;102828.91;;;11.59;60.56
48848;BME280;75039;51.970;5.660;2024-01-25T12:57:10;102820.72;;;11.62;60.68